createdAt,value
2022-10-11T00:01:35.032Z,0.70
2022-10-11T00:04:01.610Z,0.70
2022-10-11T00:06:28.092Z,1.02
2022-10-11T00:08:54.481Z,0.55
2022-10-11T00:11:21.021Z,0.60
2022-10-11T00:13:47.758Z,0.95
2022-10-11T00:16:15.436Z,0.60
2022-10-11T00:18:42.495Z,0.77
2022-10-11T00:21:13.113Z,1.13
2022-10-11T00:23:40.601Z,1.20
2022-10-11T00:26:09.461Z,1.00
2022-10-11T00:28:37.074Z,0.70
2022-10-11T00:31:08.874Z,0.90
2022-10-11T00:33:41.289Z,0.70
2022-10-11T00:36:08.988Z,0.90
2022-10-11T00:38:35.956Z,0.73
2022-10-11T00:41:02.504Z,0.90
2022-10-11T00:43:31.145Z,0.85
2022-10-11T00:45:57.520Z,0.90
2022-10-11T00:48:33.608Z,0.70
2022-10-11T00:51:03.010Z,1.00
2022-10-11T00:53:30.641Z,0.80
2022-10-11T00:56:09.568Z,0.65
2022-10-11T00:58:38.633Z,0.73
2022-10-11T01:01:05.523Z,0.90
2022-10-11T01:03:35.372Z,0.70
2022-10-11T01:06:04.107Z,0.68
2022-10-11T01:08:31.524Z,0.85
2022-10-11T01:10:58.645Z,0.47
2022-10-11T01:13:41.347Z,0.70
2022-10-11T01:16:19.351Z,0.60
2022-10-11T01:19:23.166Z,0.45
2022-10-11T01:22:10.491Z,1.05
2022-10-11T01:24:58.600Z,0.98
2022-10-11T01:27:51.241Z,0.90
2022-10-11T01:30:26.776Z,0.75
2022-10-11T01:33:13.402Z,0.68
2022-10-11T01:35:45.079Z,0.73
2022-10-11T01:38:31.103Z,0.75
2022-10-11T01:41:08.503Z,0.50
2022-10-11T01:43:37.396Z,0.70
2022-10-11T01:46:05.442Z,0.55
2022-10-11T01:48:32.004Z,0.43
2022-10-11T01:51:02.180Z,0.65
2022-10-11T01:53:43.991Z,0.50
2022-10-11T01:56:31.855Z,0.40
2022-10-11T01:59:28.501Z,0.50
2022-10-11T02:02:12.069Z,0.50
2022-10-11T02:04:56.241Z,0.45
2022-10-11T02:07:31.458Z,0.73
2022-10-11T02:10:22.328Z,0.77
2022-10-11T02:12:54.990Z,0.40
2022-10-11T02:15:22.885Z,0.65
2022-10-11T02:17:54.407Z,0.30
2022-10-11T02:20:25.031Z,0.83
2022-10-11T02:22:56.705Z,0.40
2022-10-11T02:25:26.583Z,0.30
2022-10-11T02:27:56.713Z,0.35
2022-10-11T02:30:23.640Z,0.40
2022-10-11T02:32:51.688Z,0.50
2022-10-11T02:35:18.980Z,0.30
2022-10-11T02:37:53.393Z,0.55
2022-10-11T02:40:40.676Z,0.50
2022-10-11T02:43:28.089Z,0.30
2022-10-11T02:45:58.990Z,0.50
2022-10-11T02:48:28.484Z,0.50
2022-10-11T02:50:57.264Z,0.47
2022-10-11T02:53:24.816Z,0.40
2022-10-11T02:55:52.858Z,0.35
2022-10-11T02:58:20.429Z,0.40
2022-10-11T03:00:46.785Z,0.47
2022-10-11T03:03:13.156Z,0.50
2022-10-11T03:05:43.495Z,0.60
2022-10-11T03:08:12.544Z,0.20
2022-10-11T03:10:39.740Z,0.60
2022-10-11T03:13:06.517Z,0.50
2022-10-11T03:15:33.675Z,0.45
2022-10-11T03:18:00.058Z,0.35
2022-10-11T03:20:26.631Z,0.52
2022-10-11T03:22:53.758Z,0.50
2022-10-11T03:25:20.124Z,0.38
2022-10-11T03:27:46.487Z,0.50
2022-10-11T03:30:17.329Z,0.60
2022-10-11T03:32:44.688Z,0.68
2022-10-11T03:35:11.060Z,0.63
2022-10-11T03:37:37.663Z,0.47
2022-10-11T03:40:06.648Z,0.40
2022-10-11T03:42:33.174Z,0.70
2022-10-11T03:45:01.653Z,0.30
2022-10-11T03:47:28.183Z,0.70
2022-10-11T03:49:54.535Z,0.80
2022-10-11T03:52:20.972Z,0.65
2022-10-11T03:54:47.931Z,0.75
2022-10-11T03:57:14.744Z,0.80
2022-10-11T03:59:41.145Z,0.90
2022-10-11T04:02:07.710Z,0.50
2022-10-11T04:04:34.358Z,0.68
2022-10-11T04:07:00.715Z,0.60
2022-10-11T04:09:27.156Z,0.50
2022-10-11T04:11:53.486Z,0.40
2022-10-11T04:14:20.014Z,0.50
2022-10-11T04:16:46.623Z,0.50
2022-10-11T04:19:12.958Z,0.40
2022-10-11T04:21:39.288Z,0.60
2022-10-11T04:24:05.973Z,0.50
2022-10-11T04:26:32.808Z,0.70
2022-10-11T04:28:59.252Z,0.40
2022-10-11T04:31:25.816Z,0.70
2022-10-11T04:33:52.348Z,0.50
2022-10-11T04:36:18.805Z,0.70
2022-10-11T04:38:45.149Z,0.63
2022-10-11T04:41:13.934Z,0.40
2022-10-11T04:43:40.364Z,0.50
2022-10-11T04:46:07.549Z,0.30
2022-10-11T04:48:35.838Z,0.60
2022-10-11T04:51:02.257Z,0.47
2022-10-11T04:53:28.672Z,1.10
2022-10-11T04:56:01.030Z,0.60
2022-10-11T04:58:29.167Z,0.40
2022-10-11T05:00:55.916Z,0.20
2022-10-11T05:03:22.647Z,0.57
2022-10-11T05:05:49.557Z,0.40
2022-10-11T05:08:16.312Z,0.57
2022-10-11T05:10:42.951Z,0.45
2022-10-11T05:13:09.572Z,0.53
2022-10-11T05:15:35.941Z,0.70
2022-10-11T05:18:02.580Z,0.40
2022-10-11T05:20:29.078Z,0.90
2022-10-11T05:22:55.544Z,0.90
2022-10-11T05:25:21.924Z,0.60
2022-10-11T05:27:48.858Z,0.82
2022-10-11T05:30:15.749Z,0.70
2022-10-11T05:32:42.205Z,0.80
2022-10-11T05:35:08.898Z,0.47
2022-10-11T05:37:35.471Z,0.60
2022-10-11T05:40:01.823Z,0.52
2022-10-11T05:42:28.316Z,0.75
2022-10-11T05:44:54.691Z,0.57
2022-10-11T05:47:21.284Z,0.52
2022-10-11T05:49:47.666Z,0.60
2022-10-11T05:52:21.566Z,0.40
2022-10-11T05:54:49.157Z,0.47
2022-10-11T05:57:16.059Z,0.50
2022-10-11T05:59:42.536Z,0.63
2022-10-11T06:02:13.584Z,0.60
2022-10-11T06:04:40.247Z,0.80
2022-10-11T06:07:07.056Z,0.50
2022-10-11T06:09:36.182Z,0.50
2022-10-11T06:12:02.817Z,0.60
2022-10-11T06:14:29.688Z,0.70
2022-10-11T06:16:56.054Z,0.55
2022-10-11T06:19:22.492Z,0.70
2022-10-11T06:21:48.992Z,0.40
2022-10-11T06:24:15.511Z,0.50
2022-10-11T06:26:42.152Z,0.60
2022-10-11T06:29:08.604Z,0.52
2022-10-11T06:31:35.017Z,0.50
2022-10-11T06:34:01.699Z,0.70
2022-10-11T06:36:28.616Z,0.50
2022-10-11T06:38:55.320Z,0.50
2022-10-11T06:41:25.357Z,1.00
2022-10-11T06:43:52.370Z,0.60
2022-10-11T06:46:20.299Z,0.70
2022-10-11T06:48:48.102Z,0.70
2022-10-11T06:51:17.736Z,0.70
2022-10-11T06:53:49.488Z,0.77
2022-10-11T06:56:15.827Z,0.70
2022-10-11T06:58:42.228Z,0.60
2022-10-11T07:01:13.520Z,0.82
2022-10-11T07:03:40.282Z,0.77
2022-10-11T07:06:09.999Z,0.80
2022-10-11T07:08:37.285Z,1.30
2022-10-11T07:11:06.502Z,0.90
2022-10-11T07:13:32.916Z,0.73
2022-10-11T07:16:04.775Z,0.80
2022-10-11T07:18:31.823Z,0.80
2022-10-11T07:20:59.336Z,1.00
2022-10-11T07:23:26.110Z,0.70
2022-10-11T07:25:54.739Z,0.98
2022-10-11T07:28:22.295Z,0.87
2022-10-11T07:30:50.954Z,1.02
2022-10-11T07:33:18.100Z,1.20
2022-10-11T07:35:48.194Z,1.00
2022-10-11T07:38:15.591Z,0.90
2022-10-11T07:40:44.368Z,1.37
2022-10-11T07:43:11.925Z,1.38
2022-10-11T07:45:42.441Z,1.10
2022-10-11T07:48:09.309Z,1.30
2022-10-11T07:50:35.915Z,1.15
2022-10-11T07:53:03.089Z,1.50
2022-10-11T07:55:31.595Z,1.27
2022-10-11T07:58:07.860Z,2.13
2022-10-11T08:00:34.464Z,1.45
2022-10-11T08:03:04.946Z,1.13
2022-10-11T08:05:32.228Z,1.27
2022-10-11T08:07:58.862Z,1.45
2022-10-11T08:10:26.506Z,1.60
2022-10-11T08:12:53.813Z,1.60
2022-10-11T08:15:27.020Z,1.63
2022-10-11T08:17:53.364Z,1.27
2022-10-11T08:20:19.913Z,1.23
2022-10-11T08:22:46.298Z,1.25
2022-10-11T08:25:12.649Z,1.08
2022-10-11T08:27:40.326Z,1.38
2022-10-11T08:30:11.825Z,1.27
2022-10-11T08:32:38.186Z,1.40
2022-10-11T08:35:04.955Z,1.45
2022-10-11T08:37:31.480Z,1.75
2022-10-11T08:39:57.870Z,1.77
2022-10-11T08:42:41.579Z,1.27
2022-10-11T08:45:14.081Z,1.23
2022-10-11T08:47:44.128Z,1.35
2022-10-11T08:50:21.765Z,1.15
2022-10-11T08:52:57.651Z,1.13
2022-10-11T08:55:36.136Z,1.40
2022-10-11T08:58:02.721Z,0.90
2022-10-11T09:00:33.020Z,0.98
2022-10-11T09:03:08.669Z,0.95
2022-10-11T09:05:48.385Z,0.85
2022-10-11T09:08:23.044Z,0.93
2022-10-11T09:11:01.742Z,0.90
2022-10-11T09:14:07.352Z,0.55
2022-10-11T09:17:03.349Z,1.00
2022-10-11T09:19:52.164Z,0.55
2022-10-11T09:22:43.377Z,1.42
2022-10-11T09:25:24.573Z,0.70
2022-10-11T09:28:06.289Z,0.52
2022-10-11T09:30:39.441Z,0.40
2022-10-11T09:33:08.772Z,0.70
2022-10-11T09:35:46.049Z,0.60
2022-10-11T09:38:18.844Z,0.50
2022-10-11T09:40:58.540Z,0.50
2022-10-11T09:43:25.384Z,0.50
2022-10-11T09:45:51.852Z,0.80
2022-10-11T09:48:22.693Z,0.40
2022-10-11T09:50:50.433Z,0.73
2022-10-11T09:53:16.948Z,0.82
2022-10-11T09:55:50.890Z,0.55
2022-10-11T09:58:35.492Z,0.60
2022-10-11T10:04:17.114Z,0.60
2022-10-11T10:06:43.521Z,0.57
2022-10-11T10:09:30.617Z,0.95
2022-10-11T10:12:09.918Z,0.52
2022-10-11T10:14:36.333Z,0.65
2022-10-11T10:17:06.535Z,0.70
2022-10-11T10:19:44.698Z,0.77
2022-10-11T10:22:20.800Z,0.60
2022-10-11T10:24:49.603Z,1.08
2022-10-11T10:27:24.607Z,0.50
2022-10-11T10:30:15.835Z,0.50
2022-10-11T10:33:04.527Z,0.30
2022-10-11T10:35:44.633Z,0.47
2022-10-11T10:38:35.634Z,0.43
2022-10-11T10:41:09.144Z,0.40
2022-10-11T10:43:38.375Z,0.30
2022-10-11T10:46:26.112Z,0.52
2022-10-11T10:52:41.097Z,0.50
2022-10-11T10:55:26.421Z,0.47
2022-10-11T10:58:07.353Z,0.60
2022-10-11T11:00:44.165Z,0.75
2022-10-11T11:03:37.315Z,0.68
2022-10-11T11:06:10.212Z,0.40
2022-10-11T11:08:57.540Z,0.73
2022-10-11T11:11:31.830Z,0.55
2022-10-11T11:14:27.953Z,0.90
2022-10-11T11:17:13.084Z,0.80
2022-10-11T11:19:53.580Z,0.60
2022-10-11T11:22:35.432Z,0.68
2022-10-11T11:25:19.936Z,0.70
2022-10-11T11:28:05.910Z,0.30
2022-10-11T11:31:03.602Z,0.50
2022-10-11T11:33:52.064Z,0.50
2022-10-11T11:36:43.686Z,0.40
2022-10-11T11:39:21.222Z,0.50
2022-10-11T11:42:02.041Z,0.40
2022-10-11T11:44:48.037Z,0.57
2022-10-11T11:47:31.918Z,0.40
2022-10-11T11:53:24.813Z,0.52
2022-10-11T11:56:08.935Z,0.57
2022-10-11T11:59:23.325Z,0.63
2022-10-11T12:02:14.137Z,0.50
2022-10-11T12:04:49.001Z,0.98
2022-10-11T12:09:59.042Z,0.80
2022-10-11T12:12:33.868Z,0.38
2022-10-11T12:18:16.496Z,0.60
2022-10-11T12:20:44.207Z,0.45
2022-10-11T12:23:43.537Z,0.40
2022-10-11T12:26:36.817Z,0.30
2022-10-11T12:29:05.996Z,0.60
2022-10-11T12:31:41.303Z,1.00
2022-10-11T12:34:10.192Z,0.73
2022-10-11T12:36:42.896Z,0.60
2022-10-11T12:39:18.155Z,0.60
2022-10-11T12:41:47.616Z,0.55
2022-10-11T12:47:00.055Z,0.60
2022-10-11T12:49:57.776Z,0.50
2022-10-11T12:53:05.254Z,0.50
2022-10-11T12:56:00.020Z,0.80
2022-10-11T12:58:46.401Z,0.50
2022-10-11T13:01:18.065Z,0.60
2022-10-11T13:06:29.726Z,0.75
2022-10-11T13:09:04.652Z,0.45
2022-10-11T13:11:38.764Z,0.60
2022-10-11T13:14:29.237Z,0.32
2022-10-11T13:17:44.268Z,0.70
2022-10-11T13:20:17.763Z,0.50
2022-10-11T13:22:48.350Z,1.02
2022-10-11T13:25:48.520Z,0.80
2022-10-11T13:37:53.353Z,0.40
2022-10-11T13:43:42.849Z,0.30
2022-10-11T13:46:43.875Z,0.50
2022-10-11T13:52:27.597Z,0.43
2022-10-11T13:55:02.969Z,0.80
2022-10-11T13:57:45.050Z,0.73
2022-10-11T14:00:32.213Z,0.40
2022-10-11T14:03:24.771Z,0.50
2022-10-11T14:06:01.750Z,0.73
2022-10-11T14:08:54.151Z,0.57
2022-10-11T14:11:36.574Z,0.55
2022-10-11T14:14:30.025Z,0.60
2022-10-11T14:16:59.587Z,0.75
2022-10-11T14:19:26.380Z,0.80
2022-10-11T14:21:53.296Z,0.85
2022-10-11T14:24:20.799Z,0.70
2022-10-11T14:26:54.570Z,0.47
2022-10-11T14:32:37.059Z,0.45
2022-10-11T14:35:04.347Z,0.40
2022-10-11T14:37:43.177Z,0.77
2022-10-11T14:40:14.149Z,0.40
2022-10-11T14:42:41.120Z,0.45
2022-10-11T14:45:13.617Z,0.50
2022-10-11T14:47:43.549Z,0.70
2022-10-11T14:50:44.849Z,0.90
2022-10-11T14:53:12.391Z,0.50
2022-10-11T14:55:44.188Z,0.63
2022-10-11T14:58:17.522Z,0.65
2022-10-11T15:00:51.199Z,0.85
2022-10-11T15:03:52.872Z,0.60
2022-10-11T15:06:48.842Z,0.60
2022-10-11T15:09:44.869Z,0.50
2022-10-11T15:12:27.057Z,0.57
2022-10-11T15:14:57.551Z,0.73
2022-10-11T15:17:31.208Z,0.60
2022-10-11T15:36:37.998Z,0.50
2022-10-11T15:39:07.525Z,1.00
2022-10-11T15:41:36.458Z,0.60
2022-10-11T15:44:03.340Z,0.82
2022-10-11T15:46:41.613Z,0.60
2022-10-11T15:49:13.576Z,0.47
2022-10-11T15:51:41.131Z,0.88
2022-10-11T15:54:07.644Z,0.70
2022-10-11T15:56:34.327Z,0.40
2022-10-11T15:59:01.811Z,0.80
2022-10-11T16:01:29.890Z,0.50
2022-10-11T16:03:56.546Z,0.90
2022-10-11T16:06:23.674Z,0.60
2022-10-11T16:08:50.342Z,0.65
2022-10-11T16:11:24.353Z,0.80
2022-10-11T16:13:50.829Z,1.65
2022-10-11T16:16:17.645Z,1.10
2022-10-11T16:18:44.580Z,1.43
2022-10-11T16:21:15.667Z,0.82
2022-10-11T16:23:46.130Z,0.95
2022-10-11T16:26:14.625Z,0.95
2022-10-11T16:28:44.794Z,1.35
2022-10-11T16:31:21.347Z,1.70
2022-10-11T16:34:00.440Z,1.35
2022-10-11T16:36:41.021Z,1.13
2022-10-11T16:39:15.971Z,1.45
2022-10-11T16:41:43.284Z,1.67
2022-10-11T16:44:20.889Z,1.73
2022-10-11T16:46:49.204Z,1.70
2022-10-11T16:49:17.879Z,1.95
2022-10-11T16:51:44.659Z,3.88
2022-10-11T16:54:13.723Z,3.85
2022-10-11T16:56:44.150Z,2.17
2022-10-11T16:59:12.068Z,1.88
2022-10-11T17:01:46.807Z,1.45
2022-10-11T17:04:14.027Z,1.85
2022-10-11T17:06:43.909Z,1.48
2022-10-11T17:09:11.515Z,1.30
2022-10-11T17:11:41.401Z,2.00
2022-10-11T17:14:08.782Z,1.88
2022-10-11T17:16:36.170Z,2.63
2022-10-11T17:19:18.065Z,2.53
2022-10-11T17:21:44.622Z,2.83
2022-10-11T17:24:11.252Z,2.60
2022-10-11T17:26:39.354Z,2.72
2022-10-11T17:29:06.746Z,3.45
2022-10-11T17:31:33.280Z,3.08
2022-10-11T17:34:01.167Z,1.90
2022-10-11T17:36:34.520Z,1.52
2022-10-11T17:39:06.860Z,1.35
2022-10-11T17:41:33.416Z,1.08
2022-10-11T17:44:02.898Z,1.20
2022-10-11T17:46:32.906Z,0.80
2022-10-11T17:49:01.395Z,5.82
2022-10-11T17:51:28.016Z,40.17
2022-10-11T17:53:54.591Z,24.77
2022-10-11T17:56:28.121Z,20.70
2022-10-11T17:58:58.333Z,9.93
2022-10-11T18:01:28.680Z,4.85
2022-10-11T18:04:00.824Z,3.65
2022-10-11T18:06:29.754Z,4.55
2022-10-11T18:08:59.513Z,2.90
2022-10-11T18:11:25.988Z,3.03
2022-10-11T18:13:55.735Z,2.05
2022-10-11T18:16:24.688Z,2.70
2022-10-11T18:18:51.368Z,2.28
2022-10-11T18:21:18.749Z,2.30
2022-10-11T18:23:45.741Z,1.70
2022-10-11T18:26:17.094Z,1.83
2022-10-11T18:28:50.433Z,1.52
2022-10-11T18:31:23.228Z,1.33
2022-10-11T18:36:27.890Z,3.60
2022-10-11T18:38:57.457Z,3.20
2022-10-11T18:41:30.648Z,3.22
2022-10-11T18:44:00.332Z,4.00
2022-10-11T18:46:27.908Z,3.58
2022-10-11T18:48:56.310Z,2.90
2022-10-11T18:51:25.154Z,3.00
2022-10-11T18:53:52.494Z,2.42
2022-10-11T18:56:20.830Z,2.25
2022-10-11T18:58:49.206Z,2.67
2022-10-11T19:01:22.049Z,1.67
2022-10-11T19:03:52.589Z,2.30
2022-10-11T19:06:47.961Z,1.60
2022-10-11T19:09:17.814Z,2.13
2022-10-11T19:11:48.588Z,2.35
2022-10-11T19:14:17.534Z,1.70
2022-10-11T19:16:49.119Z,2.45
2022-10-11T19:19:16.593Z,1.98
2022-10-11T19:21:43.035Z,2.50
2022-10-11T19:24:09.692Z,1.50
2022-10-11T19:26:38.826Z,1.20
2022-10-11T19:29:08.775Z,0.98
2022-10-11T19:31:39.996Z,1.33
2022-10-11T19:34:07.863Z,1.70
2022-10-11T19:36:36.817Z,3.40
2022-10-11T19:39:04.936Z,3.40
2022-10-11T19:41:31.718Z,5.30
2022-10-11T19:43:58.234Z,5.22
2022-10-11T19:46:50.294Z,5.82
2022-10-11T19:49:14.144Z,5.43
2022-10-11T19:51:40.714Z,5.40
2022-10-11T19:54:10.975Z,4.78
2022-10-11T19:56:37.552Z,4.53
2022-10-11T19:59:06.548Z,4.65
2022-10-11T20:01:55.856Z,4.88
2022-10-11T20:04:50.539Z,4.40
2022-10-11T20:07:08.612Z,3.40
2022-10-11T20:09:35.115Z,3.47
2022-10-11T20:12:01.494Z,3.00
2022-10-11T20:14:28.072Z,3.10
2022-10-11T20:16:54.498Z,2.80
2022-10-11T20:19:25.023Z,2.13
2022-10-11T20:21:53.231Z,1.80
2022-10-11T20:24:21.022Z,2.90
2022-10-11T20:26:47.474Z,1.50
2022-10-11T20:29:13.801Z,1.43
2022-10-11T20:31:41.738Z,1.00
2022-10-11T20:34:10.112Z,0.95
2022-10-11T20:36:36.659Z,1.40
2022-10-11T20:39:04.807Z,1.35
2022-10-11T20:44:49.625Z,2.00
2022-10-11T20:47:16.108Z,1.20
2022-10-11T20:49:45.359Z,1.10
2022-10-11T20:52:11.828Z,1.10
2022-10-11T20:54:40.576Z,1.27
2022-10-11T20:57:07.232Z,1.50
2022-10-11T20:59:33.627Z,1.45
2022-10-11T21:02:00.041Z,1.13
2022-10-11T21:04:26.590Z,1.98
2022-10-11T21:06:52.951Z,2.80
2022-10-11T21:09:19.512Z,3.15
2022-10-11T21:11:46.229Z,2.53
2022-10-11T21:14:12.781Z,1.95
2022-10-11T21:16:39.245Z,4.15
2022-10-11T21:19:06.394Z,6.60
2022-10-11T21:21:33.070Z,4.00
2022-10-11T21:24:01.248Z,5.00
2022-10-11T21:26:28.702Z,5.00
2022-10-11T21:28:55.374Z,5.60
2022-10-11T21:31:23.108Z,4.10
2022-10-11T21:33:50.000Z,4.63
2022-10-11T21:36:22.390Z,6.03
2022-10-11T21:38:50.149Z,5.55
2022-10-11T21:41:20.029Z,4.72
2022-10-11T21:43:47.296Z,3.20
2022-10-11T21:46:47.576Z,2.40
2022-10-11T21:49:13.613Z,2.40
2022-10-11T21:51:40.154Z,2.00
2022-10-11T21:54:06.838Z,1.48
2022-10-11T21:56:33.209Z,1.30
2022-10-11T21:58:59.761Z,1.73
2022-10-11T22:01:26.434Z,4.03
2022-10-11T22:03:54.003Z,2.63
2022-10-11T22:06:20.848Z,1.90
2022-10-11T22:08:47.887Z,1.70
2022-10-11T22:11:14.379Z,1.83
2022-10-11T22:13:40.888Z,1.50
2022-10-11T22:16:12.638Z,1.48
2022-10-11T22:18:39.829Z,1.20
2022-10-11T22:21:18.631Z,1.30
2022-10-11T22:23:47.870Z,1.73
2022-10-11T22:26:22.214Z,1.50
2022-10-11T22:28:49.161Z,1.75
2022-10-11T22:31:18.273Z,1.60
2022-10-11T22:36:12.756Z,2.33
2022-10-11T22:38:41.695Z,1.65
2022-10-11T22:41:08.933Z,1.40
2022-10-11T22:43:35.869Z,1.50
2022-10-11T22:46:02.725Z,1.10
2022-10-11T22:48:29.209Z,1.48
2022-10-11T22:50:55.585Z,1.50
2022-10-11T22:53:22.097Z,1.20
2022-10-11T22:55:48.568Z,1.10
2022-10-11T22:58:15.030Z,1.23
2022-10-11T23:00:41.563Z,1.55
2022-10-11T23:03:08.089Z,1.70
2022-10-11T23:05:35.504Z,1.42
2022-10-11T23:08:01.886Z,1.40
2022-10-11T23:10:28.337Z,1.10
2022-10-11T23:12:54.713Z,1.20
2022-10-11T23:15:21.106Z,1.50
2022-10-11T23:17:48.373Z,1.08
2022-10-11T23:20:14.852Z,1.20
2022-10-11T23:22:41.398Z,1.17
2022-10-11T23:25:08.325Z,0.93
2022-10-11T23:27:34.795Z,1.20
2022-10-11T23:30:01.341Z,1.35
2022-10-11T23:32:27.755Z,1.30
2022-10-11T23:34:54.280Z,1.30
2022-10-11T23:37:20.796Z,1.10
2022-10-11T23:39:47.240Z,1.50
2022-10-11T23:42:13.685Z,1.00
2022-10-11T23:44:40.040Z,1.48
2022-10-11T23:47:06.411Z,1.70
2022-10-11T23:49:32.868Z,1.52
2022-10-11T23:51:59.264Z,1.52
2022-10-11T23:54:25.727Z,1.42
2022-10-11T23:56:52.249Z,1.17
2022-10-11T23:59:18.705Z,1.47
